sensor_id;sensor_type;location;lat;lon;timestamp;pressure;altitude;pressure_sealevel;temperature;humidity
23281;BME280;11809;56.390;-3.266;2022-12-24T00:01:32;99631.13;;;17.09;51.71
23281;BME280;11809;56.390;-3.266;2022-12-24T00:04:01;99629.09;;;17.01;52.00
23281;BME280;11809;56.390;-3.266;2022-12-24T00:06:31;99634.81;;;16.96;52.05
23281;BME280;11809;56.390;-3.266;2022-12-24T00:08:59;99625.16;;;16.95;52.38
23281;BME280;11809;56.390;-3.266;2022-12-24T00:11:26;99618.16;;;16.94;52.42
23281;BME280;11809;56.390;-3.266;2022-12-24T00:13:53;99610.47;;;16.91;52.52
23281;BME280;11809;56.390;-3.266;2022-12-24T00:16:21;99610.00;;;16.86;52.57
23281;BME280;11809;56.390;-3.266;2022-12-24T00:18:48;99595.41;;;16.81;52.53
23281;BME280;11809;56.390;-3.266;2022-12-24T00:21:15;99600.97;;;16.78;52.54
23281;BME280;11809;56.390;-3.266;2022-12-24T00:23:43;99600.25;;;16.76;52.81
23281;BME280;11809;56.390;-3.266;2022-12-24T00:26:11;99600.38;;;16.74;52.81
23281;BME280;11809;56.390;-3.266;2022-12-24T00:28:41;99598.09;;;16.70;52.65
23281;BME280;11809;56.390;-3.266;2022-12-24T00:31:13;99592.09;;;16.68;52.88
23281;BME280;11809;56.390;-3.266;2022-12-24T00:33:41;99585.22;;;16.65;52.85
23281;BME280;11809;56.390;-3.266;2022-12-24T00:36:08;99583.66;;;16.63;52.79
23281;BME280;11809;56.390;-3.266;2022-12-24T00:38:37;99581.38;;;16.58;52.83
23281;BME280;11809;56.390;-3.266;2022-12-24T00:41:07;99586.94;;;16.55;52.95
23281;BME280;11809;56.390;-3.266;2022-12-24T00:44:05;99593.44;;;16.51;52.87
23281;BME280;11809;56.390;-3.266;2022-12-24T00:46:37;99592.81;;;16.48;53.05
23281;BME280;11809;56.390;-3.266;2022-12-24T00:49:06;99586.94;;;16.44;53.15
23281;BME280;11809;56.390;-3.266;2022-12-24T00:51:34;99582.72;;;16.42;53.08
23281;BME280;11809;56.390;-3.266;2022-12-24T00:54:03;99596.00;;;16.42;53.16
23281;BME280;11809;56.390;-3.266;2022-12-24T00:56:31;99599.72;;;16.39;53.22
23281;BME280;11809;56.390;-3.266;2022-12-24T00:58:59;99593.81;;;16.35;53.24
23281;BME280;11809;56.390;-3.266;2022-12-24T01:01:26;99592.38;;;16.31;53.14
23281;BME280;11809;56.390;-3.266;2022-12-24T01:03:54;99593.34;;;16.30;53.43
23281;BME280;11809;56.390;-3.266;2022-12-24T01:06:41;99590.94;;;16.27;53.43
23281;BME280;11809;56.390;-3.266;2022-12-24T01:09:08;99601.78;;;16.24;53.47
23281;BME280;11809;56.390;-3.266;2022-12-24T01:11:35;99595.78;;;16.22;53.48
23281;BME280;11809;56.390;-3.266;2022-12-24T01:14:02;99596.72;;;16.21;53.66
23281;BME280;11809;56.390;-3.266;2022-12-24T01:16:29;99604.91;;;16.18;53.63
23281;BME280;11809;56.390;-3.266;2022-12-24T01:18:56;99600.59;;;16.17;53.69
23281;BME280;11809;56.390;-3.266;2022-12-24T01:21:23;99605.91;;;16.17;53.60
23281;BME280;11809;56.390;-3.266;2022-12-24T01:23:51;99596.50;;;16.13;53.72
23281;BME280;11809;56.390;-3.266;2022-12-24T01:26:18;99601.78;;;16.13;53.64
23281;BME280;11809;56.390;-3.266;2022-12-24T01:28:45;99596.75;;;16.10;53.83
23281;BME280;11809;56.390;-3.266;2022-12-24T01:31:15;99599.38;;;16.10;53.78
23281;BME280;11809;56.390;-3.266;2022-12-24T01:33:43;99593.50;;;16.07;53.89
23281;BME280;11809;56.390;-3.266;2022-12-24T01:36:12;99592.66;;;16.06;53.90
23281;BME280;11809;56.390;-3.266;2022-12-24T01:38:40;99597.25;;;16.04;53.96
23281;BME280;11809;56.390;-3.266;2022-12-24T01:41:13;99593.84;;;16.02;53.74
23281;BME280;11809;56.390;-3.266;2022-12-24T01:44:25;99592.19;;;16.01;53.98
23281;BME280;11809;56.390;-3.266;2022-12-24T01:49:35;99593.28;;;15.99;54.02
23281;BME280;11809;56.390;-3.266;2022-12-24T01:52:06;99589.78;;;15.98;54.01
23281;BME280;11809;56.390;-3.266;2022-12-24T01:54:45;99596.03;;;15.97;54.04
23281;BME280;11809;56.390;-3.266;2022-12-24T01:59:45;99584.59;;;15.97;54.19
23281;BME280;11809;56.390;-3.266;2022-12-24T02:02:15;99580.13;;;15.97;54.33
23281;BME280;11809;56.390;-3.266;2022-12-24T02:04:53;99579.53;;;15.94;54.24
23281;BME280;11809;56.390;-3.266;2022-12-24T02:07:23;99577.72;;;15.94;54.13
23281;BME280;11809;56.390;-3.266;2022-12-24T02:09:55;99579.66;;;15.92;54.24
23281;BME280;11809;56.390;-3.266;2022-12-24T02:12:24;99576.28;;;15.90;54.25
23281;BME280;11809;56.390;-3.266;2022-12-24T02:14:53;99577.97;;;15.91;54.28
23281;BME280;11809;56.390;-3.266;2022-12-24T02:31:37;99562.56;;;15.85;54.50
23281;BME280;11809;56.390;-3.266;2022-12-24T02:34:07;99560.75;;;15.86;54.54
23281;BME280;11809;56.390;-3.266;2022-12-24T02:37:01;99552.91;;;15.84;54.49
23281;BME280;11809;56.390;-3.266;2022-12-24T02:40:12;99553.91;;;15.83;54.50
23281;BME280;11809;56.390;-3.266;2022-12-24T02:42:38;99550.25;;;15.84;54.59
23281;BME280;11809;56.390;-3.266;2022-12-24T02:45:12;99549.41;;;15.84;54.57
23281;BME280;11809;56.390;-3.266;2022-12-24T02:47:41;99558.13;;;15.86;54.66
23281;BME280;11809;56.390;-3.266;2022-12-24T02:50:12;99550.41;;;15.83;54.32
23281;BME280;11809;56.390;-3.266;2022-12-24T02:52:42;99557.25;;;15.85;54.60
23281;BME280;11809;56.390;-3.266;2022-12-24T02:58:04;99558.22;;;15.84;54.60
23281;BME280;11809;56.390;-3.266;2022-12-24T03:05:48;99555.69;;;15.83;54.77
23281;BME280;11809;56.390;-3.266;2022-12-24T03:11:07;99559.31;;;15.82;54.67
23281;BME280;11809;56.390;-3.266;2022-12-24T03:13:35;99561.84;;;15.83;54.78
23281;BME280;11809;56.390;-3.266;2022-12-24T03:16:12;99564.59;;;15.82;54.80
23281;BME280;11809;56.390;-3.266;2022-12-24T03:18:44;99562.78;;;15.82;54.64
23281;BME280;11809;56.390;-3.266;2022-12-24T03:21:44;99564.50;;;15.83;55.04
23281;BME280;11809;56.390;-3.266;2022-12-24T03:24:13;99561.09;;;15.81;54.72
23281;BME280;11809;56.390;-3.266;2022-12-24T03:26:40;99557.50;;;15.82;55.01
23281;BME280;11809;56.390;-3.266;2022-12-24T03:29:08;99568.09;;;15.82;54.85
23281;BME280;11809;56.390;-3.266;2022-12-24T03:31:49;99571.59;;;15.83;54.89
23281;BME280;11809;56.390;-3.266;2022-12-24T03:34:18;99566.41;;;15.81;54.88
23281;BME280;11809;56.390;-3.266;2022-12-24T03:36:46;99562.66;;;15.84;54.84
23281;BME280;11809;56.390;-3.266;2022-12-24T03:39:13;99569.91;;;15.82;54.83
23281;BME280;11809;56.390;-3.266;2022-12-24T03:41:40;99568.09;;;15.82;54.88
23281;BME280;11809;56.390;-3.266;2022-12-24T03:44:07;99565.31;;;15.84;54.98
23281;BME280;11809;56.390;-3.266;2022-12-24T03:46:34;99567.25;;;15.82;54.88
23281;BME280;11809;56.390;-3.266;2022-12-24T03:49:01;99575.09;;;15.83;55.07
23281;BME280;11809;56.390;-3.266;2022-12-24T03:51:28;99566.16;;;15.84;54.94
23281;BME280;11809;56.390;-3.266;2022-12-24T03:53:56;99565.22;;;15.85;54.87
23281;BME280;11809;56.390;-3.266;2022-12-24T03:56:23;99561.72;;;15.85;54.96
23281;BME280;11809;56.390;-3.266;2022-12-24T03:58:50;99560.88;;;15.84;55.10
23281;BME280;11809;56.390;-3.266;2022-12-24T04:01:17;99574.81;;;15.86;54.96
23281;BME280;11809;56.390;-3.266;2022-12-24T04:03:44;99563.41;;;15.86;54.94
23281;BME280;11809;56.390;-3.266;2022-12-24T04:06:13;99563.41;;;15.86;54.97
23281;BME280;11809;56.390;-3.266;2022-12-24T04:08:41;99566.06;;;15.86;55.08
23281;BME280;11809;56.390;-3.266;2022-12-24T04:11:10;99572.31;;;15.85;55.05
23281;BME280;11809;56.390;-3.266;2022-12-24T04:13:38;99568.56;;;15.87;55.02
23281;BME280;11809;56.390;-3.266;2022-12-24T04:16:08;99568.56;;;15.87;54.94
23281;BME280;11809;56.390;-3.266;2022-12-24T04:18:36;99574.72;;;15.88;55.08
23281;BME280;11809;56.390;-3.266;2022-12-24T04:21:04;99572.91;;;15.88;55.13
23281;BME280;11809;56.390;-3.266;2022-12-24T04:23:34;99569.28;;;15.89;55.11
23281;BME280;11809;56.390;-3.266;2022-12-24T04:26:03;99563.16;;;15.89;55.00
23281;BME280;11809;56.390;-3.266;2022-12-24T04:28:31;99566.53;;;15.91;55.04
23281;BME280;11809;56.390;-3.266;2022-12-24T04:30:58;99575.34;;;15.91;55.05
23281;BME280;11809;56.390;-3.266;2022-12-24T04:33:25;99574.34;;;15.92;54.96
23281;BME280;11809;56.390;-3.266;2022-12-24T04:35:52;99570.84;;;15.92;55.27
23281;BME280;11809;56.390;-3.266;2022-12-24T04:38:19;99562.91;;;15.92;55.12
23281;BME280;11809;56.390;-3.266;2022-12-24T04:40:46;99564.72;;;15.91;55.04
23281;BME280;11809;56.390;-3.266;2022-12-24T04:43:14;99576.03;;;15.93;55.24
23281;BME280;11809;56.390;-3.266;2022-12-24T04:45:40;99571.59;;;15.94;55.15
23281;BME280;11809;56.390;-3.266;2022-12-24T04:48:07;99571.47;;;15.95;55.12
23281;BME280;11809;56.390;-3.266;2022-12-24T04:50:34;99571.69;;;15.92;55.13
23281;BME280;11809;56.390;-3.266;2022-12-24T04:53:01;99571.84;;;15.91;55.04
23281;BME280;11809;56.390;-3.266;2022-12-24T04:55:28;99567.97;;;15.84;55.15
23281;BME280;11809;56.390;-3.266;2022-12-24T04:57:55;99564.50;;;15.83;55.08
23281;BME280;11809;56.390;-3.266;2022-12-24T05:00:21;99568.09;;;15.82;55.24
23281;BME280;11809;56.390;-3.266;2022-12-24T05:02:48;99555.94;;;15.80;55.27
23281;BME280;11809;56.390;-3.266;2022-12-24T05:05:15;99552.34;;;15.81;55.09
23281;BME280;11809;56.390;-3.266;2022-12-24T05:07:42;99561.38;;;15.78;55.25
23281;BME280;11809;56.390;-3.266;2022-12-24T05:10:09;99570.25;;;15.77;55.15
23281;BME280;11809;56.390;-3.266;2022-12-24T05:12:36;99571.97;;;15.78;55.33
23281;BME280;11809;56.390;-3.266;2022-12-24T05:15:03;99571.97;;;15.78;55.28
23281;BME280;11809;56.390;-3.266;2022-12-24T05:17:30;99573.88;;;15.76;55.24
23281;BME280;11809;56.390;-3.266;2022-12-24T05:19:57;99582.78;;;15.75;55.42
23281;BME280;11809;56.390;-3.266;2022-12-24T05:22:24;99579.16;;;15.76;55.26
23281;BME280;11809;56.390;-3.266;2022-12-24T05:25:10;99577.59;;;15.73;55.40
23281;BME280;11809;56.390;-3.266;2022-12-24T05:27:55;99577.59;;;15.73;55.44
23281;BME280;11809;56.390;-3.266;2022-12-24T05:30:22;99576.88;;;15.71;55.18
23281;BME280;11809;56.390;-3.266;2022-12-24T05:32:49;99579.41;;;15.73;55.32
23281;BME280;11809;56.390;-3.266;2022-12-24T05:35:16;99580.38;;;15.72;55.44
23281;BME280;11809;56.390;-3.266;2022-12-24T05:37:43;99590.84;;;15.73;55.54
23281;BME280;11809;56.390;-3.266;2022-12-24T05:40:10;99590.25;;;15.70;55.45
23281;BME280;11809;56.390;-3.266;2022-12-24T05:42:37;99597.22;;;15.71;55.63
23281;BME280;11809;56.390;-3.266;2022-12-24T05:45:04;99595.44;;;15.71;55.72
23281;BME280;11809;56.390;-3.266;2022-12-24T05:47:31;99603.50;;;15.70;55.50
23281;BME280;11809;56.390;-3.266;2022-12-24T05:50:05;99600.09;;;15.68;55.50
23281;BME280;11809;56.390;-3.266;2022-12-24T05:52:32;99602.53;;;15.71;55.75
23281;BME280;11809;56.390;-3.266;2022-12-24T05:54:59;99590.25;;;15.70;55.68
23281;BME280;11809;56.390;-3.266;2022-12-24T05:57:26;99590.38;;;15.68;55.67
23281;BME280;11809;56.390;-3.266;2022-12-24T05:59:53;99586.00;;;15.67;55.61
23281;BME280;11809;56.390;-3.266;2022-12-24T06:02:20;99583.50;;;15.66;55.57
23281;BME280;11809;56.390;-3.266;2022-12-24T06:04:46;99581.69;;;15.66;55.60
23281;BME280;11809;56.390;-3.266;2022-12-24T06:07:13;99591.56;;;15.64;55.70
23281;BME280;11809;56.390;-3.266;2022-12-24T06:09:40;99584.44;;;15.65;55.65
23281;BME280;11809;56.390;-3.266;2022-12-24T06:12:07;99573.84;;;15.65;55.56
23281;BME280;11809;56.390;-3.266;2022-12-24T06:14:34;99576.63;;;15.63;55.91
23281;BME280;11809;56.390;-3.266;2022-12-24T06:17:01;99573.13;;;15.63;55.54
23281;BME280;11809;56.390;-3.266;2022-12-24T06:19:28;99580.38;;;15.61;55.74
23281;BME280;11809;56.390;-3.266;2022-12-24T06:21:55;99575.06;;;15.61;55.68
23281;BME280;11809;56.390;-3.266;2022-12-24T06:24:22;99578.56;;;15.61;55.78
23281;BME280;11809;56.390;-3.266;2022-12-24T06:26:49;99577.97;;;15.58;55.71
23281;BME280;11809;56.390;-3.266;2022-12-24T06:29:15;99579.75;;;15.57;55.61
23281;BME280;11809;56.390;-3.266;2022-12-24T06:31:42;99570.84;;;15.58;55.77
23281;BME280;11809;56.390;-3.266;2022-12-24T06:34:09;99562.06;;;15.58;55.63
23281;BME280;11809;56.390;-3.266;2022-12-24T06:36:36;99566.41;;;15.59;55.95
23281;BME280;11809;56.390;-3.266;2022-12-24T06:39:03;99576.38;;;15.55;55.86
23281;BME280;11809;56.390;-3.266;2022-12-24T06:41:30;99582.31;;;15.59;55.89
23281;BME280;11809;56.390;-3.266;2022-12-24T06:43:57;99580.13;;;15.64;55.95
23281;BME280;11809;56.390;-3.266;2022-12-24T06:46:24;99571.97;;;15.67;55.97
23281;BME280;11809;56.390;-3.266;2022-12-24T06:48:51;99576.03;;;15.71;55.73
23281;BME280;11809;56.390;-3.266;2022-12-24T06:51:20;99568.81;;;15.73;55.82
23281;BME280;11809;56.390;-3.266;2022-12-24T06:53:48;99584.47;;;15.76;55.65
23281;BME280;11809;56.390;-3.266;2022-12-24T06:56:19;99585.22;;;15.78;55.69
23281;BME280;11809;56.390;-3.266;2022-12-24T06:58:47;99580.63;;;15.80;55.68
23281;BME280;11809;56.390;-3.266;2022-12-24T07:01:16;99578.56;;;15.84;55.54
23281;BME280;11809;56.390;-3.266;2022-12-24T07:03:44;99578.47;;;15.85;55.44
23281;BME280;11809;56.390;-3.266;2022-12-24T07:06:17;99582.66;;;15.88;55.54
23281;BME280;11809;56.390;-3.266;2022-12-24T07:08:45;99586.88;;;15.90;55.56
23281;BME280;11809;56.390;-3.266;2022-12-24T07:11:12;99580.63;;;15.91;55.60
23281;BME280;11809;56.390;-3.266;2022-12-24T07:13:39;99591.09;;;15.93;55.66
23281;BME280;11809;56.390;-3.266;2022-12-24T07:16:06;99600.00;;;15.92;55.53
23281;BME280;11809;56.390;-3.266;2022-12-24T07:18:33;99597.47;;;15.90;55.47
23281;BME280;11809;56.390;-3.266;2022-12-24T07:21:02;99600.00;;;15.92;55.79
23281;BME280;11809;56.390;-3.266;2022-12-24T07:23:29;99599.91;;;15.93;55.95
23281;BME280;11809;56.390;-3.266;2022-12-24T07:26:04;99610.25;;;15.96;55.96
23281;BME280;11809;56.390;-3.266;2022-12-24T07:28:32;99606.53;;;15.99;55.90
23281;BME280;11809;56.390;-3.266;2022-12-24T07:30:59;99615.19;;;16.01;55.85
23281;BME280;11809;56.390;-3.266;2022-12-24T07:33:27;99611.59;;;16.02;56.00
23281;BME280;11809;56.390;-3.266;2022-12-24T07:36:18;99611.31;;;16.05;56.13
23281;BME280;11809;56.390;-3.266;2022-12-24T07:38:45;99617.34;;;16.07;56.20
23281;BME280;11809;56.390;-3.266;2022-12-24T07:41:13;99615.56;;;16.07;55.95
23281;BME280;11809;56.390;-3.266;2022-12-24T07:43:43;99625.88;;;16.10;55.92
23281;BME280;11809;56.390;-3.266;2022-12-24T07:46:11;99622.28;;;16.11;56.12
23281;BME280;11809;56.390;-3.266;2022-12-24T07:48:38;99620.84;;;16.07;55.85
23281;BME280;11809;56.390;-3.266;2022-12-24T07:51:05;99619.16;;;16.06;55.82
23281;BME280;11809;56.390;-3.266;2022-12-24T07:53:32;99617.22;;;16.08;55.97
23281;BME280;11809;56.390;-3.266;2022-12-24T07:55:59;99621.34;;;16.12;56.28
23281;BME280;11809;56.390;-3.266;2022-12-24T07:58:32;99622.06;;;16.14;56.50
23281;BME280;11809;56.390;-3.266;2022-12-24T08:01:00;99625.41;;;16.16;55.98
23281;BME280;11809;56.390;-3.266;2022-12-24T08:03:27;99628.78;;;16.18;56.35
23281;BME280;11809;56.390;-3.266;2022-12-24T08:05:54;99627.84;;;16.19;56.09
23281;BME280;11809;56.390;-3.266;2022-12-24T08:08:22;99617.94;;;16.21;56.05
23281;BME280;11809;56.390;-3.266;2022-12-24T08:10:49;99627.69;;;16.21;55.96
23281;BME280;11809;56.390;-3.266;2022-12-24T08:13:17;99628.78;;;16.18;55.53
23281;BME280;11809;56.390;-3.266;2022-12-24T08:15:44;99623.47;;;16.18;55.74
23281;BME280;11809;56.390;-3.266;2022-12-24T08:18:11;99631.19;;;16.21;55.72
23281;BME280;11809;56.390;-3.266;2022-12-24T08:20:39;99637.22;;;16.23;55.75
23281;BME280;11809;56.390;-3.266;2022-12-24T08:23:07;99639.75;;;16.25;55.72
23281;BME280;11809;56.390;-3.266;2022-12-24T08:25:34;99640.59;;;16.25;55.86
23281;BME280;11809;56.390;-3.266;2022-12-24T08:28:02;99640.38;;;16.28;55.87
23281;BME280;11809;56.390;-3.266;2022-12-24T08:30:29;99646.50;;;16.29;55.77
23281;BME280;11809;56.390;-3.266;2022-12-24T08:32:57;99642.88;;;16.30;55.79
23281;BME280;11809;56.390;-3.266;2022-12-24T08:35:24;99646.38;;;16.30;55.56
23281;BME280;11809;56.390;-3.266;2022-12-24T08:37:51;99652.41;;;16.32;55.47
23281;BME280;11809;56.390;-3.266;2022-12-24T08:40:18;99656.00;;;16.31;55.42
23281;BME280;11809;56.390;-3.266;2022-12-24T08:42:45;99657.69;;;16.32;55.29
23281;BME280;11809;56.390;-3.266;2022-12-24T08:45:12;99661.19;;;16.33;55.38
23281;BME280;11809;56.390;-3.266;2022-12-24T08:47:39;99671.66;;;16.34;55.27
23281;BME280;11809;56.390;-3.266;2022-12-24T08:50:07;99657.56;;;16.34;55.24
23281;BME280;11809;56.390;-3.266;2022-12-24T08:52:34;99662.78;;;16.35;55.21
23281;BME280;11809;56.390;-3.266;2022-12-24T08:55:02;99661.91;;;16.35;55.15
23281;BME280;11809;56.390;-3.266;2022-12-24T08:57:29;99661.06;;;16.34;55.12
23281;BME280;11809;56.390;-3.266;2022-12-24T08:59:56;99655.75;;;16.34;55.21
23281;BME280;11809;56.390;-3.266;2022-12-24T09:02:23;99663.25;;;16.29;54.73
23281;BME280;11809;56.390;-3.266;2022-12-24T09:04:50;99660.50;;;16.20;54.50
23281;BME280;11809;56.390;-3.266;2022-12-24T09:07:18;99668.53;;;16.18;54.68
23281;BME280;11809;56.390;-3.266;2022-12-24T09:09:45;99666.63;;;16.20;54.95
23281;BME280;11809;56.390;-3.266;2022-12-24T09:12:12;99667.97;;;16.26;55.02
23281;BME280;11809;56.390;-3.266;2022-12-24T09:14:39;99665.91;;;16.29;55.11
23281;BME280;11809;56.390;-3.266;2022-12-24T09:17:06;99660.59;;;16.29;55.24
23281;BME280;11809;56.390;-3.266;2022-12-24T09:19:33;99670.00;;;16.33;55.14
23281;BME280;11809;56.390;-3.266;2022-12-24T09:22:02;99670.00;;;16.33;55.30
23281;BME280;11809;56.390;-3.266;2022-12-24T09:24:29;99675.06;;;16.36;55.32
23281;BME280;11809;56.390;-3.266;2022-12-24T09:26:56;99674.81;;;16.39;55.36
23281;BME280;11809;56.390;-3.266;2022-12-24T09:29:25;99668.53;;;16.41;55.19
23281;BME280;11809;56.390;-3.266;2022-12-24T09:31:52;99683.38;;;16.43;55.46
23281;BME280;11809;56.390;-3.266;2022-12-24T09:34:21;99682.28;;;16.46;55.57
23281;BME280;11809;56.390;-3.266;2022-12-24T09:36:55;99675.03;;;16.48;55.37
23281;BME280;11809;56.390;-3.266;2022-12-24T09:39:23;99675.16;;;16.46;54.92
23281;BME280;11809;56.390;-3.266;2022-12-24T09:44:45;99682.41;;;16.44;54.71
23281;BME280;11809;56.390;-3.266;2022-12-24T09:49:50;99686.50;;;16.37;54.60
23281;BME280;11809;56.390;-3.266;2022-12-24T09:52:45;99683.13;;;16.35;54.74
23281;BME280;11809;56.390;-3.266;2022-12-24T09:55:22;99684.81;;;16.36;54.77
23281;BME280;11809;56.390;-3.266;2022-12-24T09:57:52;99684.69;;;16.37;54.70
23281;BME280;11809;56.390;-3.266;2022-12-24T10:00:27;99682.53;;;16.43;56.12
23281;BME280;11809;56.390;-3.266;2022-12-24T10:02:55;99676.03;;;16.47;57.37
23281;BME280;11809;56.390;-3.266;2022-12-24T10:05:38;99665.28;;;16.48;57.71
23281;BME280;11809;56.390;-3.266;2022-12-24T10:10:52;99669.63;;;16.49;55.73
23281;BME280;11809;56.390;-3.266;2022-12-24T10:18:48;99665.78;;;16.53;56.30
23281;BME280;11809;56.390;-3.266;2022-12-24T10:21:48;99660.38;;;16.55;55.99
23281;BME280;11809;56.390;-3.266;2022-12-24T10:24:36;99654.06;;;16.56;56.49
23281;BME280;11809;56.390;-3.266;2022-12-24T10:27:13;99663.03;;;16.55;56.22
23281;BME280;11809;56.390;-3.266;2022-12-24T10:29:43;99665.31;;;16.59;57.12
23281;BME280;11809;56.390;-3.266;2022-12-24T10:32:27;99670.59;;;16.59;57.57
23281;BME280;11809;56.390;-3.266;2022-12-24T10:37:34;99690.50;;;16.65;58.22
23281;BME280;11809;56.390;-3.266;2022-12-24T10:40:02;99675.78;;;16.61;56.72
23281;BME280;11809;56.390;-3.266;2022-12-24T10:42:40;99688.22;;;16.60;56.21
23281;BME280;11809;56.390;-3.266;2022-12-24T10:45:20;99696.28;;;16.59;56.54
23281;BME280;11809;56.390;-3.266;2022-12-24T10:47:51;99694.34;;;16.61;56.96
23281;BME280;11809;56.390;-3.266;2022-12-24T10:50:28;99697.97;;;16.60;56.62
23281;BME280;11809;56.390;-3.266;2022-12-24T10:53:20;99694.34;;;16.61;56.72
23281;BME280;11809;56.390;-3.266;2022-12-24T10:55:49;99697.97;;;16.60;56.66
23281;BME280;11809;56.390;-3.266;2022-12-24T10:58:18;99702.19;;;16.62;57.46
23281;BME280;11809;56.390;-3.266;2022-12-24T11:00:53;99702.28;;;16.61;56.88
23281;BME280;11809;56.390;-3.266;2022-12-24T11:08:30;99702.56;;;16.58;56.14
23281;BME280;11809;56.390;-3.266;2022-12-24T11:11:04;99707.97;;;16.56;56.29
23281;BME280;11809;56.390;-3.266;2022-12-24T11:13:35;99701.72;;;16.57;56.54
23281;BME280;11809;56.390;-3.266;2022-12-24T11:16:27;99695.56;;;16.57;56.02
23281;BME280;11809;56.390;-3.266;2022-12-24T11:18:58;99696.28;;;16.59;56.54
23281;BME280;11809;56.390;-3.266;2022-12-24T11:23:55;99688.47;;;16.57;56.00
23281;BME280;11809;56.390;-3.266;2022-12-24T11:26:27;99698.09;;;16.58;56.03
23281;BME280;11809;56.390;-3.266;2022-12-24T11:31:34;99691.09;;;16.57;56.80
23281;BME280;11809;56.390;-3.266;2022-12-24T11:36:50;99687.22;;;16.50;55.90
23281;BME280;11809;56.390;-3.266;2022-12-24T11:39:22;99691.94;;;16.47;56.01
23281;BME280;11809;56.390;-3.266;2022-12-24T11:41:51;99690.47;;;16.43;56.54
23281;BME280;11809;56.390;-3.266;2022-12-24T11:44:26;99696.00;;;16.39;55.96
23281;BME280;11809;56.390;-3.266;2022-12-24T11:46:55;99682.91;;;16.38;55.85
23281;BME280;11809;56.390;-3.266;2022-12-24T11:49:27;99692.66;;;16.37;56.33
23281;BME280;11809;56.390;-3.266;2022-12-24T11:52:12;99688.06;;;16.39;56.15
23281;BME280;11809;56.390;-3.266;2022-12-24T11:57:24;99696.38;;;16.46;58.30
23281;BME280;11809;56.390;-3.266;2022-12-24T11:59:54;99697.00;;;16.50;58.50
23281;BME280;11809;56.390;-3.266;2022-12-24T12:02:27;99694.34;;;16.50;57.56
23281;BME280;11809;56.390;-3.266;2022-12-24T12:05:18;99683.97;;;16.47;56.93
23281;BME280;11809;56.390;-3.266;2022-12-24T12:07:50;99687.84;;;16.54;58.61
23281;BME280;11809;56.390;-3.266;2022-12-24T12:10:24;99685.09;;;16.55;58.47
23281;BME280;11809;56.390;-3.266;2022-12-24T12:12:59;99689.31;;;16.58;59.00
23281;BME280;11809;56.390;-3.266;2022-12-24T12:15:37;99686.53;;;16.59;59.22
23281;BME280;11809;56.390;-3.266;2022-12-24T12:18:12;99684.56;;;16.61;59.42
23281;BME280;11809;56.390;-3.266;2022-12-24T12:20:47;99676.38;;;16.64;59.34
23281;BME280;11809;56.390;-3.266;2022-12-24T12:23:34;99676.28;;;16.66;59.48
23281;BME280;11809;56.390;-3.266;2022-12-24T12:26:20;99676.00;;;16.69;59.30
23281;BME280;11809;56.390;-3.266;2022-12-24T12:31:33;99675.75;;;16.72;60.14
23281;BME280;11809;56.390;-3.266;2022-12-24T12:34:16;99666.84;;;16.73;61.00
23281;BME280;11809;56.390;-3.266;2022-12-24T12:39:16;99671.44;;;16.71;58.62
23281;BME280;11809;56.390;-3.266;2022-12-24T12:41:54;99672.25;;;16.71;58.40
23281;BME280;11809;56.390;-3.266;2022-12-24T12:47:45;99656.22;;;16.73;59.05
23281;BME280;11809;56.390;-3.266;2022-12-24T12:50:24;99658.75;;;16.74;60.14
23281;BME280;11809;56.390;-3.266;2022-12-24T12:58:18;99659.84;;;16.72;59.20
23281;BME280;11809;56.390;-3.266;2022-12-24T13:00:49;99658.16;;;16.71;58.27
23281;BME280;11809;56.390;-3.266;2022-12-24T13:22:04;99635.63;;;16.65;59.88
23281;BME280;11809;56.390;-3.266;2022-12-24T13:24:39;99640.19;;;16.63;59.92
23281;BME280;11809;56.390;-3.266;2022-12-24T13:29:57;99622.47;;;16.64;60.39
23281;BME280;11809;56.390;-3.266;2022-12-24T13:32:51;99618.16;;;16.63;59.83
23281;BME280;11809;56.390;-3.266;2022-12-24T13:37:50;99621.91;;;16.60;58.32
23281;BME280;11809;56.390;-3.266;2022-12-24T13:50:37;99602.25;;;16.63;57.91
23281;BME280;11809;56.390;-3.266;2022-12-24T13:55:56;99591.38;;;16.66;58.46
23281;BME280;11809;56.390;-3.266;2022-12-24T13:58:25;99599.19;;;16.67;59.09
23281;BME280;11809;56.390;-3.266;2022-12-24T14:01:04;99595.31;;;16.71;58.88
23281;BME280;11809;56.390;-3.266;2022-12-24T14:03:47;99606.28;;;16.78;59.01
23281;BME280;11809;56.390;-3.266;2022-12-24T14:06:23;99600.59;;;16.82;58.49
23281;BME280;11809;56.390;-3.266;2022-12-24T14:08:53;99602.75;;;16.88;58.36
23281;BME280;11809;56.390;-3.266;2022-12-24T14:11:25;99599.69;;;16.93;58.40
23281;BME280;11809;56.390;-3.266;2022-12-24T14:16:41;99587.09;;;17.06;58.36
23281;BME280;11809;56.390;-3.266;2022-12-24T14:21:48;99575.72;;;17.15;58.46
23281;BME280;11809;56.390;-3.266;2022-12-24T14:24:23;99573.41;;;17.22;58.45
23281;BME280;11809;56.390;-3.266;2022-12-24T14:26:55;99573.00;;;17.26;58.46
23281;BME280;11809;56.390;-3.266;2022-12-24T14:29:45;99575.16;;;17.32;58.34
23281;BME280;11809;56.390;-3.266;2022-12-24T14:32:15;99572.94;;;17.37;58.33
23281;BME280;11809;56.390;-3.266;2022-12-24T14:34:42;99566.28;;;17.43;58.40
23281;BME280;11809;56.390;-3.266;2022-12-24T14:37:11;99562.50;;;17.45;58.35
23281;BME280;11809;56.390;-3.266;2022-12-24T14:39:45;99559.31;;;17.51;58.58
23281;BME280;11809;56.390;-3.266;2022-12-24T14:47:47;99568.66;;;17.67;58.53
23281;BME280;11809;56.390;-3.266;2022-12-24T14:55:47;99557.38;;;17.74;57.91
23281;BME280;11809;56.390;-3.266;2022-12-24T15:00:48;99548.09;;;17.69;58.22
23281;BME280;11809;56.390;-3.266;2022-12-24T15:03:22;99551.03;;;17.66;58.28
23281;BME280;11809;56.390;-3.266;2022-12-24T15:05:52;99546.22;;;17.60;57.15
23281;BME280;11809;56.390;-3.266;2022-12-24T15:08:31;99546.44;;;17.47;56.27
23281;BME280;11809;56.390;-3.266;2022-12-24T15:11:03;99541.97;;;17.47;56.83
23281;BME280;11809;56.390;-3.266;2022-12-24T15:13:31;99542.53;;;17.51;57.58
23281;BME280;11809;56.390;-3.266;2022-12-24T15:16:04;99541.97;;;17.47;56.56
23281;BME280;11809;56.390;-3.266;2022-12-24T15:18:35;99538.91;;;17.52;57.98
23281;BME280;11809;56.390;-3.266;2022-12-24T15:21:07;99542.19;;;17.55;58.52